Time;durP1;ratioP1;P1;durP2;ratioP2;P2;SDS_P1;SDS_P2;PMS_P1;PMS_P2;Temp;Humidity;BMP_temperature;BMP_pressure;BME280_temperature;BME280_humidity;BME280_pressure;Samples;Min_cycle;Max_cycle;Signal;HPM_P1;HPM_P2
2021/06/23 00:02:33;;;;;;;10.23;3.22;;;;;;;23.07;49.16;100284.28;5074331;28;20036;-79
2021/06/23 00:05:37;;;;;;;10.48;3.25;;;;;;;23.03;49.20;100277.56;5073519;28;20043;-80
2021/06/23 00:08:42;;;;;;;13.32;2.97;;;;;;;23.00;49.29;100286.22;5073927;28;20048;-79
2021/06/23 00:11:51;;;;;;;19.15;3.33;;;;;;;22.77;49.96;100296.81;5074144;28;20371;-80
2021/06/23 00:14:55;;;;;;;17.83;3.67;;;;;;;22.75;50.19;100296.19;5074271;28;20052;-80
2021/06/23 00:18:00;;;;;;;16.50;3.40;;;;;;;22.83;49.80;100287.75;5074447;28;20067;-79
2021/06/23 00:21:05;;;;;;;20.05;3.08;;;;;;;22.87;49.91;100300.78;5073639;28;20506;-80
2021/06/23 00:24:09;;;;;;;19.42;3.60;;;;;;;22.93;49.98;100301.84;5074087;28;20044;-79
2021/06/23 00:27:13;;;;;;;13.45;3.42;;;;;;;23.00;49.72;100306.22;5073294;28;20051;-80
2021/06/23 00:30:19;;;;;;;20.48;3.47;;;;;;;22.92;49.82;100302.88;5074133;28;20043;-79
2021/06/23 00:33:31;;;;;;;15.70;3.42;;;;;;;22.80;50.51;100310.06;5072619;28;20056;-79
2021/06/23 00:36:35;;;;;;;9.75;2.90;;;;;;;22.89;50.05;100300.56;5074028;28;20486;-80
2021/06/23 00:39:40;;;;;;;15.27;3.28;;;;;;;23.00;50.18;100298.00;5073952;28;20056;-80
2021/06/23 00:42:44;;;;;;;10.98;2.72;;;;;;;23.03;50.36;100291.25;5074245;28;20052;-79
2021/06/23 00:45:51;;;;;;;11.65;3.22;;;;;;;22.86;49.80;100284.59;5061396;28;20056;-80
2021/06/23 00:48:57;;;;;;;10.20;2.95;;;;;;;22.64;50.26;100293.06;5073014;28;20494;-79
2021/06/23 00:52:03;;;;;;;11.15;3.33;;;;;;;22.61;50.24;100292.63;5074087;28;20126;-77
2021/06/23 00:55:24;;;;;;;16.77;3.85;;;;;;;22.55;50.33;100288.84;5072849;28;20055;-79
2021/06/23 00:58:31;;;;;;;11.95;3.00;;;;;;;22.46;50.77;100295.59;5073939;28;20044;-79
2021/06/23 01:01:40;;;;;;;11.75;3.20;;;;;;;22.53;51.14;100282.75;5073717;28;20396;-79
2021/06/23 01:04:49;;;;;;;13.68;3.78;;;;;;;22.37;51.58;100268.66;5073921;28;20060;-80
2021/06/23 01:07:54;;;;;;;13.93;3.35;;;;;;;22.07;52.04;100279.25;5052751;28;20056;-79
2021/06/23 01:11:04;;;;;;;7.70;2.75;;;;;;;21.93;52.31;100280.25;5053235;28;20056;-80
2021/06/23 01:14:12;;;;;;;12.07;2.88;;;;;;;21.85;52.37;100283.22;5053796;28;20052;-79
2021/06/23 01:17:19;;;;;;;18.80;3.92;;;;;;;21.75;52.47;100269.09;5053433;28;20052;-79
2021/06/23 01:20:23;;;;;;;15.45;3.35;;;;;;;21.75;52.59;100275.38;5053411;28;20060;-79
2021/06/23 01:23:27;;;;;;;13.55;2.97;;;;;;;21.62;52.72;100263.59;5053365;28;20052;-80
2021/06/23 01:26:31;;;;;;;15.02;3.15;;;;;;;21.57;52.90;100261.50;5053362;28;20056;-79
2021/06/23 01:29:37;;;;;;;11.55;3.30;;;;;;;21.66;52.92;100259.41;5052815;28;20495;-80
2021/06/23 01:32:50;;;;;;;11.93;3.13;;;;;;;21.81;52.60;100260.06;5054321;28;20052;-80
2021/06/23 01:35:55;;;;;;;14.80;3.33;;;;;;;21.76;52.53;100241.56;5055970;28;20075;-79
2021/06/23 01:39:00;;;;;;;11.05;2.83;;;;;;;21.64;52.35;100247.84;5056824;28;20384;-79
2021/06/23 01:42:05;;;;;;;15.23;3.10;;;;;;;21.69;51.43;100256.25;5056205;28;20526;-79
2021/06/23 01:45:11;;;;;;;14.45;3.28;;;;;;;21.74;51.41;100253.75;5056869;28;20052;-80
2021/06/23 01:48:19;;;;;;;11.30;2.70;;;;;;;21.75;51.78;100247.25;5079027;28;20605;-79
2021/06/23 01:51:24;;;;;;;7.63;2.40;;;;;;;21.87;51.70;100260.06;5056969;28;20099;-80
2021/06/23 01:54:30;;;;;;;11.57;2.60;;;;;;;21.89;51.74;100251.69;5055950;28;20392;-81
2021/06/23 01:57:39;;;;;;;10.60;2.40;;;;;;;21.96;51.65;100247.06;5044539;28;20052;-79
2021/06/23 02:01:14;;;;;;;10.40;2.72;;;;;;;22.04;52.42;100249.59;5055698;28;20056;-79
2021/06/23 02:04:57;;;;;;;8.45;2.60;;;;;;;21.91;52.85;100244.09;5056711;28;20479;-81
2021/06/23 02:08:16;;;;;;;11.27;2.80;;;;;;;21.71;52.70;100238.59;5056586;28;20048;-80
2021/06/23 02:11:29;;;;;;;8.43;2.67;;;;;;;21.77;52.82;100253.34;5056520;28;20067;-80
2021/06/23 02:14:39;;;;;;;13.63;3.17;;;;;;;21.78;52.78;100246.78;5056427;28;20499;-79
2021/06/23 02:18:04;;;;;;;7.47;2.63;;;;;;;21.79;52.21;100243.03;5056456;28;20052;-80
2021/06/23 02:21:30;;;;;;;8.02;2.30;;;;;;;21.99;51.59;100252.94;5056581;28;20052;-79
2021/06/23 02:24:35;;;;;;;8.07;2.40;;;;;;;22.05;51.07;100250.44;5055728;28;20048;-79
2021/06/23 02:27:47;;;;;;;12.32;2.50;;;;;;;22.04;50.92;100249.59;5043902;28;20040;-80
2021/06/23 02:30:52;;;;;;;9.85;2.45;;;;;;;22.08;50.64;100256.28;5056345;28;20060;-80
2021/06/23 02:33:59;;;;;;;13.10;3.08;;;;;;;21.84;51.07;100255.03;5054515;28;20404;-81
2021/06/23 02:37:14;;;;;;;8.43;2.72;;;;;;;21.76;51.24;100260.69;5065267;28;20507;-80
2021/06/23 02:40:21;;;;;;;12.38;3.28;;;;;;;21.69;51.55;100259.84;5054967;28;20400;-80
2021/06/23 02:43:39;;;;;;;16.33;3.42;;;;;;;21.73;51.55;100257.50;5054730;28;20112;-80
2021/06/23 02:46:54;;;;;;;10.35;3.15;;;;;;;21.75;51.57;100266.38;5055079;28;20048;-81
2021/06/23 02:50:12;;;;;;;9.43;3.15;;;;;;;21.76;51.82;100263.41;5043583;28;20044;-80
2021/06/23 02:53:52;;;;;;;10.38;2.72;;;;;;;21.60;52.41;100249.31;5069963;28;20063;-80
2021/06/23 02:56:59;;;;;;;11.45;3.45;;;;;;;21.61;52.45;100265.50;5043411;28;20380;-79
2021/06/23 03:00:05;;;;;;;10.98;3.25;;;;;;;21.46;52.66;100272.19;5055487;28;20388;-78
2021/06/23 03:03:13;;;;;;;9.52;2.80;;;;;;;21.12;52.34;100279.44;5054920;28;20055;-80
2021/06/23 03:06:18;;;;;;;17.30;3.70;;;;;;;20.95;52.39;100269.91;5054844;28;20067;-79
2021/06/23 03:09:25;;;;;;;13.20;3.00;;;;;;;20.77;52.69;100267.72;5055636;28;20055;-79
2021/06/23 03:12:44;;;;;;;10.88;2.95;;;;;;;20.63;52.70;100271.44;5054162;28;20068;-79
2021/06/23 03:16:11;;;;;;;8.55;2.67;;;;;;;20.70;52.40;100294.13;5058519;28;20071;-80
2021/06/23 03:19:17;;;;;;;7.45;2.55;;;;;;;20.89;51.73;100292.53;5054391;28;20056;-79
2021/06/23 03:22:24;;;;;;;10.15;2.75;;;;;;;20.96;51.08;100304.31;5061562;28;20055;-79
2021/06/23 03:25:29;;;;;;;12.77;2.65;;;;;;;21.08;50.80;100300.03;5054277;28;20538;-78
2021/06/23 03:28:34;;;;;;;7.35;2.50;;;;;;;21.07;50.75;100306.53;5054137;28;20060;-78
2021/06/23 03:31:42;;;;;;;12.38;2.85;;;;;;;20.85;51.48;100301.34;5053957;28;20495;-80
2021/06/23 03:34:46;;;;;;;10.43;2.53;;;;;;;20.48;52.70;100313.50;5054338;28;20052;-79
2021/06/23 03:37:53;;;;;;;8.18;2.42;;;;;;;20.35;53.14;100316.97;5054497;28;20060;-79
2021/06/23 03:40:58;;;;;;;10.60;3.17;;;;;;;20.26;53.58;100309.13;5054618;28;20395;-79
2021/06/23 03:44:02;;;;;;;6.90;2.25;;;;;;;20.28;53.79;100320.69;5054593;28;20051;-80
2021/06/23 03:47:07;;;;;;;11.18;2.85;;;;;;;20.13;53.93;100332.50;5041977;28;20048;-79
2021/06/23 03:50:17;;;;;;;9.13;2.95;;;;;;;20.15;54.13;100345.09;5054786;28;20052;-81
2021/06/23 03:53:24;;;;;;;9.35;2.10;;;;;;;20.31;53.91;100344.81;5041956;28;20052;-80
2021/06/23 03:56:30;;;;;;;8.70;2.60;;;;;;;20.42;53.36;100347.84;5053563;28;20039;-80
2021/06/23 03:59:35;;;;;;;10.20;2.47;;;;;;;20.60;52.20;100337.28;5053726;28;20479;-79
2021/06/23 04:02:41;;;;;;;7.97;2.88;;;;;;;20.60;51.98;100330.97;5053717;28;20386;-79
2021/06/23 04:05:46;;;;;;;6.68;1.67;;;;;;;20.85;52.11;100334.06;5059152;28;20052;-80
2021/06/23 04:08:50;;;;;;;8.70;2.17;;;;;;;21.15;51.25;100344.56;5051043;28;20059;-80
2021/06/23 04:11:54;;;;;;;9.20;2.78;;;;;;;21.39;50.72;100337.72;5069974;28;20483;-79
2021/06/23 04:14:59;;;;;;;11.75;3.70;;;;;;;21.42;50.21;100333.75;5068117;28;20518;-79
2021/06/23 04:18:04;;;;;;;7.68;2.25;;;;;;;21.32;50.03;100331.41;5053294;28;20072;-80
2021/06/23 04:21:09;;;;;;;7.97;2.28;;;;;;;21.38;49.60;100336.03;5061754;28;20060;-80
2021/06/23 04:24:13;;;;;;;8.90;2.30;;;;;;;21.59;48.95;100338.63;5053960;28;20052;-75
2021/06/23 04:27:20;;;;;;;11.77;2.33;;;;;;;21.80;48.02;100341.19;5053864;28;20060;-78
2021/06/23 04:30:25;;;;;;;8.85;2.63;;;;;;;21.82;47.54;100351.94;5076332;28;20056;-80
2021/06/23 04:33:30;;;;;;;8.63;2.35;;;;;;;21.89;47.55;100352.81;5052516;28;20067;-81
2021/06/23 04:36:41;;;;;;;5.68;2.05;;;;;;;22.23;46.56;100349.03;5076318;28;20052;-80
2021/06/23 04:39:46;;;;;;;6.32;1.98;;;;;;;22.45;46.03;100343.16;5066892;28;20523;-80
2021/06/23 04:42:52;;;;;;;9.45;2.17;;;;;;;23.06;44.80;100351.09;5072081;28;20047;-79
2021/06/23 04:45:56;;;;;;;4.85;1.67;;;;;;;23.37;43.60;100345.72;5073127;28;20044;-81
2021/06/23 04:49:02;;;;;;;8.15;1.73;;;;;;;23.69;42.28;100343.84;5071899;28;20044;-80
2021/06/23 04:52:26;;;;;;;6.38;1.83;;;;;;;23.96;41.37;100345.38;5073592;28;20052;-80
2021/06/23 04:55:31;;;;;;;7.72;1.90;;;;;;;24.14;41.26;100342.75;5073882;28;20071;-80
2021/06/23 04:58:44;;;;;;;6.50;1.60;;;;;;;24.77;39.77;100356.31;5073076;28;20048;-80
2021/06/23 05:01:51;;;;;;;37.90;31.40;;;;;;;25.48;39.14;100357.44;5073826;28;20048;-80
2021/06/23 05:04:56;;;;;;;22.80;15.75;;;;;;;26.18;37.78;100361.34;5074029;28;20044;-81
2021/06/23 05:08:01;;;;;;;8.68;2.55;;;;;;;26.91;36.74;100360.94;5077826;28;20048;-80
2021/06/23 05:11:05;;;;;;;5.45;2.00;;;;;;;27.61;35.77;100356.13;5078071;28;20047;-81
2021/06/23 05:14:11;;;;;;;6.95;1.67;;;;;;;28.44;35.41;100363.75;5074832;28;20052;-81
2021/06/23 05:17:15;;;;;;;5.20;1.60;;;;;;;29.16;34.92;100356.34;5077239;28;20052;-81
2021/06/23 05:20:21;;;;;;;8.25;1.90;;;;;;;29.99;33.88;100358.75;5077550;28;20075;-81
2021/06/23 05:23:26;;;;;;;9.07;1.70;;;;;;;30.78;31.87;100351.44;5077901;28;20052;-81
2021/06/23 05:26:30;;;;;;;13.68;1.98;;;;;;;30.91;31.48;100345.44;5076673;28;20071;-80
2021/06/23 05:29:34;;;;;;;6.90;2.00;;;;;;;31.55;30.45;100359.94;5077608;28;20047;-81
2021/06/23 05:32:39;;;;;;;9.20;2.05;;;;;;;31.97;29.66;100355.03;5076818;28;20056;-80
2021/06/23 05:35:43;;;;;;;13.90;1.70;;;;;;;32.48;28.52;100364.31;5076610;28;20043;-82
2021/06/23 05:38:47;;;;;;;6.53;1.48;;;;;;;33.70;27.13;100362.94;5077156;28;20052;-78
2021/06/23 05:41:52;;;;;;;4.47;1.55;;;;;;;34.91;25.49;100364.03;5063998;28;20055;-82
2021/06/23 05:44:56;;;;;;;6.88;1.73;;;;;;;36.43;24.15;100372.09;5056594;28;20063;-80
2021/06/23 05:48:01;;;;;;;7.50;2.78;;;;;;;37.91;22.76;100383.88;5061592;28;20055;-80
2021/06/23 05:51:07;;;;;;;6.47;2.00;;;;;;;39.08;21.86;100379.00;5075649;28;20043;-81
2021/06/23 05:54:11;;;;;;;7.72;1.75;;;;;;;38.87;21.85;100393.59;5066531;28;20511;-81
2021/06/23 05:57:16;;;;;;;7.03;1.45;;;;;;;39.59;21.40;100401.72;5072432;28;20048;-80
2021/06/23 06:00:22;;;;;;;11.55;1.90;;;;;;;40.66;20.71;100395.28;5064182;28;20052;-82
2021/06/23 06:03:26;;;;;;;9.77;1.52;;;;;;;41.50;20.74;100405.84;5073291;28;20060;-80
2021/06/23 06:06:30;;;;;;;5.28;1.40;;;;;;;42.99;19.47;100407.72;5075082;28;20047;-82
2021/06/23 06:09:35;;;;;;;7.63;1.40;;;;;;;42.43;19.59;100409.22;5069603;28;20039;-84
2021/06/23 06:12:39;;;;;;;7.55;1.52;;;;;;;43.52;18.77;100418.09;5074254;28;20086;-85
2021/06/23 06:15:44;;;;;;;9.18;1.55;;;;;;;45.07;17.74;100420.09;5076557;28;20067;-83
2021/06/23 06:18:49;;;;;;;7.20;2.03;;;;;;;44.02;18.72;100423.38;5066402;28;20104;-83
2021/06/23 06:21:54;;;;;;;6.20;1.35;;;;;;;45.42;17.71;100414.56;5054815;28;20044;-83
2021/06/23 06:24:59;;;;;;;11.85;2.03;;;;;;;45.86;17.44;100429.44;5068786;28;20059;-82
2021/06/23 06:28:04;;;;;;;15.55;1.60;;;;;;;45.69;17.55;100419.31;5070149;28;20491;-85
2021/06/23 06:31:08;;;;;;;9.52;1.98;;;;;;;47.55;16.75;100416.00;5072479;28;20063;-81
2021/06/23 06:34:13;;;;;;;7.80;1.75;;;;;;;48.19;16.05;100420.69;5071480;28;20055;-83
2021/06/23 06:37:17;;;;;;;11.05;2.25;;;;;;;47.80;16.33;100427.00;5057312;28;20055;-82
2021/06/23 06:40:21;;;;;;;9.75;2.20;;;;;;;45.89;17.20;100428.72;5073736;28;20055;-83
2021/06/23 06:43:26;;;;;;;5.07;1.80;;;;;;;46.19;17.58;100427.03;5072695;28;20067;-83
2021/06/23 06:46:30;;;;;;;10.00;2.30;;;;;;;46.67;17.09;100422.78;5075073;28;20055;-83
2021/06/23 06:49:35;;;;;;;5.35;1.98;;;;;;;48.90;15.85;100428.13;5065216;28;20063;-85
2021/06/23 06:52:39;;;;;;;11.50;2.00;;;;;;;48.35;16.48;100426.19;5074813;28;20055;-84
2021/06/23 06:55:44;;;;;;;8.32;2.35;;;;;;;47.35;17.19;100437.16;5072717;28;20407;-84
2021/06/23 06:58:49;;;;;;;7.45;2.05;;;;;;;48.60;16.12;100433.03;5072509;28;20052;-84
2021/06/23 07:01:53;;;;;;;9.15;2.45;;;;;;;49.44;15.47;100426.66;5071666;28;20071;-85
2021/06/23 07:04:58;;;;;;;5.65;2.20;;;;;;;46.84;17.81;100433.72;5075217;28;20051;-84
2021/06/23 07:08:02;;;;;;;7.05;2.40;;;;;;;46.18;18.60;100430.22;5074399;28;20413;-80
2021/06/23 07:11:07;;;;;;;6.35;2.28;;;;;;;46.54;18.20;100426.19;5071677;28;20051;-83
2021/06/23 07:14:11;;;;;;;10.30;2.28;;;;;;;46.44;18.30;100434.13;5068591;28;20056;-82
2021/06/23 07:17:16;;;;;;;10.15;2.55;;;;;;;46.09;19.36;100421.94;5070672;28;20052;-81
2021/06/23 07:20:21;;;;;;;10.25;2.88;;;;;;;45.35;19.71;100419.22;5068632;28;20048;-84
2021/06/23 07:23:25;;;;;;;11.43;2.42;;;;;;;45.16;19.85;100432.06;5071849;28;20415;-83
2021/06/23 07:26:30;;;;;;;6.57;2.30;;;;;;;46.31;18.98;100426.06;5073304;28;20047;-88
2021/06/23 07:29:34;;;;;;;17.63;2.67;;;;;;;46.90;18.69;100414.34;5073245;28;20051;-87
2021/06/23 07:39:17;;;;;;;10.00;2.50;;;;;;;46.28;19.45;100418.28;5066588;28;20399;-83
2021/06/23 07:42:21;;;;;;;7.90;2.55;;;;;;;46.72;18.96;100419.69;5073466;28;20043;-81
2021/06/23 07:45:25;;;;;;;5.53;2.30;;;;;;;46.99;19.20;100414.91;5069980;28;20047;-84
2021/06/23 07:48:32;;;;;;;9.75;2.50;;;;;;;46.18;20.23;100405.50;5073431;28;20052;-82
2021/06/23 07:51:58;;;;;;;7.80;2.42;;;;;;;46.77;19.45;100410.00;5073082;28;20419;-82
2021/06/23 08:09:02;;;;;;;9.80;2.72;;;;;;;47.19;19.80;100401.50;5053024;28;20052;-83
2021/06/23 08:15:18;;;;;;;;;;;;;;;41.80;23.86;100404.69;5053600;28;20047;-79
2021/06/23 08:18:22;;;;;;;9.65;2.50;;;;;;;39.59;26.80;100412.97;5052291;28;19917;-83
2021/06/23 08:21:27;;;;;;;9.60;2.58;;;;;;;38.68;28.39;100398.56;5054565;28;20052;-83
2021/06/23 08:24:31;;;;;;;6.22;2.15;;;;;;;37.86;29.02;100405.56;5072693;28;20052;-83
2021/06/23 08:27:36;;;;;;;11.05;3.00;;;;;;;37.84;29.47;100410.63;5072595;28;20048;-82
2021/06/23 08:30:41;;;;;;;10.82;2.67;;;;;;;37.37;30.28;100407.09;5072150;28;20126;-80
2021/06/23 08:33:45;;;;;;;7.55;2.28;;;;;;;36.12;31.71;100408.13;5072602;28;20044;-86
2021/06/23 08:36:49;;;;;;;8.82;2.83;;;;;;;36.28;31.85;100400.31;5073211;28;20056;-84
2021/06/23 08:39:54;;;;;;;9.88;2.42;;;;;;;35.99;32.13;100408.00;5071425;28;20052;-81
2021/06/23 08:42:58;;;;;;;9.80;2.33;;;;;;;34.59;32.22;100417.59;5072793;28;20107;-84
2021/06/23 08:46:03;;;;;;;9.30;2.17;;;;;;;33.46;34.26;100411.19;5072113;28;20498;-83
2021/06/23 08:49:09;;;;;;;10.27;2.67;;;;;;;33.12;34.89;100411.00;5072296;28;20047;-79
2021/06/23 08:52:14;;;;;;;12.27;2.97;;;;;;;33.14;34.99;100415.16;5072386;28;20071;-80
2021/06/23 08:55:19;;;;;;;13.90;2.65;;;;;;;32.82;35.05;100417.41;5072290;28;20509;-81
2021/06/23 08:58:23;;;;;;;6.88;2.80;;;;;;;32.78;35.56;100422.72;5052618;28;20052;-82
2021/06/23 09:01:28;;;;;;;9.90;2.65;;;;;;;32.88;35.68;100424.66;5060103;28;20438;-79
2021/06/23 09:04:33;;;;;;;10.07;2.53;;;;;;;32.53;35.42;100421.88;5072858;28;20067;-80
2021/06/23 09:07:41;;;;;;;13.48;2.70;;;;;;;32.21;36.88;100424.84;5072520;28;20079;-81
2021/06/23 09:10:46;;;;;;;6.57;2.15;;;;;;;32.66;36.79;100421.31;5072711;28;20044;-78
2021/06/23 09:13:50;;;;;;;10.93;2.50;;;;;;;32.58;37.09;100413.53;5071562;28;20052;-81
2021/06/23 09:17:15;;;;;;;13.02;2.67;;;;;;;32.71;36.52;100429.66;5071758;28;20059;-84
2021/06/23 09:20:19;;;;;;;14.02;2.53;;;;;;;32.88;34.91;100421.03;5072647;28;20135;-85
2021/06/23 09:23:40;;;;;;;7.35;2.13;;;;;;;32.85;35.60;100429.91;5072223;28;20055;-85
2021/06/23 09:26:45;;;;;;;10.00;2.47;;;;;;;33.22;35.68;100425.75;5072262;28;20048;-85
2021/06/23 09:29:53;;;;;;;9.32;2.25;;;;;;;33.55;34.48;100424.28;5062767;28;20052;-84
2021/06/23 09:33:34;;;;;;;10.10;2.60;;;;;;;33.42;34.39;100427.63;5071272;28;20051;-85
2021/06/23 09:36:38;;;;;;;10.77;2.70;;;;;;;33.10;35.13;100421.59;5059916;28;20418;-85
2021/06/23 09:39:42;;;;;;;8.82;2.40;;;;;;;32.98;35.43;100419.06;5059697;28;20052;-85
2021/06/23 09:42:57;;;;;;;7.68;2.42;;;;;;;33.30;35.08;100429.91;5072223;28;20521;-85
2021/06/23 09:46:12;;;;;;;9.65;2.38;;;;;;;32.95;34.66;100422.41;5072430;28;20059;-86
2021/06/23 09:49:27;;;;;;;15.82;2.88;;;;;;;32.93;34.50;100424.66;5071697;28;20056;-85
2021/06/23 09:52:35;;;;;;;11.82;2.22;;;;;;;32.85;34.36;100418.81;5071657;28;20044;-86
2021/06/23 09:55:42;;;;;;;8.40;2.58;;;;;;;32.72;35.30;100420.19;5075924;28;20055;-85
2021/06/23 09:58:46;;;;;;;13.63;2.63;;;;;;;32.70;35.31;100423.25;5058663;28;20059;-80
2021/06/23 10:01:50;;;;;;;17.02;2.72;;;;;;;32.58;35.55;100411.59;5076143;28;20060;-85
2021/06/23 10:05:00;;;;;;;12.55;3.13;;;;;;;32.30;34.48;100416.78;5076064;28;20098;-87
2021/06/23 10:08:05;;;;;;;8.82;2.53;;;;;;;32.32;35.18;100418.19;5073583;28;20510;-80
2021/06/23 10:11:10;;;;;;;11.48;2.58;;;;;;;32.06;34.47;100422.88;5075333;28;20130;-86
2021/06/23 10:14:14;;;;;;;11.45;2.45;;;;;;;32.23;34.30;100417.06;5075701;28;20063;-79
2021/06/23 10:17:22;;;;;;;12.05;3.25;;;;;;;32.11;34.79;100416.50;5075108;28;20071;-81
2021/06/23 10:20:26;;;;;;;9.23;2.75;;;;;;;32.12;34.15;100401.50;5075325;28;20051;-79
2021/06/23 10:23:30;;;;;;;8.98;2.50;;;;;;;32.34;34.51;100410.44;5075325;28;20047;-81
2021/06/23 10:26:50;;;;;;;14.63;2.88;;;;;;;32.57;34.55;100395.16;5075149;28;20055;-79
2021/06/23 10:29:57;;;;;;;10.90;2.90;;;;;;;31.87;35.52;100413.38;5075072;28;20043;-79
2021/06/23 10:33:02;;;;;;;13.88;2.67;;;;;;;31.87;36.29;100413.38;5074541;28;20064;-80
2021/06/23 10:36:07;;;;;;;7.38;2.42;;;;;;;31.65;36.08;100406.34;5065815;28;20059;-80
2021/06/23 10:39:12;;;;;;;8.88;2.90;;;;;;;31.80;35.60;100400.84;5063018;28;20071;-81
2021/06/23 10:42:21;;;;;;;9.60;2.53;;;;;;;31.70;35.97;100393.28;5067731;28;20055;-78
2021/06/23 10:45:40;;;;;;;8.98;2.80;;;;;;;31.68;35.54;100401.06;5073813;28;20055;-80
2021/06/23 10:48:55;;;;;;;8.82;3.60;;;;;;;31.58;35.85;100403.78;5074211;28;20051;-81
2021/06/23 10:52:21;;;;;;;10.63;2.78;;;;;;;31.61;35.91;100388.53;5074487;28;20047;-81
2021/06/23 10:55:26;;;;;;;13.93;3.67;;;;;;;31.70;35.40;100396.06;5074701;28;20048;-82
2021/06/23 10:58:34;;;;;;;11.55;2.80;;;;;;;31.52;34.97;100394.63;5073535;28;20064;-81
2021/06/23 11:02:11;;;;;;;14.63;2.83;;;;;;;31.49;34.77;100395.16;5074716;28;20063;-81
2021/06/23 11:05:33;;;;;;;7.70;2.60;;;;;;;30.84;35.91;100386.38;5071108;28;20056;-82
2021/06/23 11:08:37;;;;;;;9.13;2.42;;;;;;;31.12;35.46;100366.63;5073366;28;20055;-82
2021/06/23 11:11:41;;;;;;;13.27;2.60;;;;;;;31.34;34.37;100372.84;5074762;28;20048;-81
2021/06/23 11:15:11;;;;;;;13.20;2.50;;;;;;;31.51;34.63;100362.41;5074121;28;20067;-82
2021/06/23 11:18:40;;;;;;;10.50;2.95;;;;;;;31.57;35.62;100352.19;5073931;28;20051;-81
2021/06/23 11:21:46;;;;;;;9.93;3.60;;;;;;;31.75;35.51;100354.44;5072974;28;20051;-81
2021/06/23 11:25:25;;;;;;;7.82;2.83;;;;;;;31.71;36.11;100352.47;5073700;28;20475;-82
2021/06/23 11:28:30;;;;;;;12.15;2.30;;;;;;;31.58;36.12;100344.69;5073545;28;20399;-82
2021/06/23 11:31:44;;;;;;;10.10;2.83;;;;;;;31.72;35.93;100332.78;5071381;28;20051;-80
2021/06/23 11:34:53;;;;;;;14.43;2.67;;;;;;;31.69;36.24;100350.00;5053728;28;20052;-80
2021/06/23 11:37:57;;;;;;;7.93;2.90;;;;;;;31.36;35.27;100353.16;5052904;28;20499;-80
2021/06/23 11:41:04;;;;;;;12.82;2.63;;;;;;;31.47;35.79;100350.19;5052168;28;20052;-83
2021/06/23 11:44:10;;;;;;;7.05;2.38;;;;;;;31.48;35.47;100354.63;5053620;28;20051;-82
2021/06/23 11:47:15;;;;;;;7.18;2.88;;;;;;;31.53;35.61;100354.66;5054036;28;20048;-81
2021/06/23 11:50:30;;;;;;;9.90;2.38;;;;;;;31.36;35.67;100340.13;5052806;28;20527;-79
2021/06/23 11:53:35;;;;;;;11.45;2.28;;;;;;;31.26;35.55;100342.84;5053775;28;20056;-79
2021/06/23 11:56:39;;;;;;;10.05;2.50;;;;;;;31.23;35.69;100346.16;5053299;28;20047;-79
2021/06/23 11:59:44;;;;;;;7.18;2.53;;;;;;;31.36;35.81;100354.00;5053376;28;20048;-79
2021/06/23 12:02:49;;;;;;;10.50;2.75;;;;;;;31.20;35.46;100343.94;5053119;28;20052;-80
2021/06/23 12:05:55;;;;;;;13.73;2.30;;;;;;;31.22;35.56;100352.81;5051767;28;20396;-80
2021/06/23 12:09:00;;;;;;;9.18;2.58;;;;;;;31.47;36.03;100338.25;5053190;28;20059;-80
2021/06/23 12:12:05;;;;;;;8.82;2.35;;;;;;;31.56;36.05;100324.69;5052506;28;20056;-82
2021/06/23 12:15:11;;;;;;;9.15;2.63;;;;;;;31.48;35.65;100310.22;5053063;28;20060;-80
2021/06/23 12:18:16;;;;;;;8.45;2.08;;;;;;;31.51;35.93;100320.78;5052774;28;20075;-79
2021/06/23 12:21:20;;;;;;;7.20;2.13;;;;;;;31.45;35.59;100321.88;5053083;28;20107;-79
2021/06/23 12:24:26;;;;;;;9.30;2.95;;;;;;;31.48;34.91;100310.22;5055146;28;20055;-82
2021/06/23 12:27:30;;;;;;;7.43;2.53;;;;;;;31.66;35.35;100310.81;5045866;28;20045;-79
2021/06/23 12:30:35;;;;;;;10.35;2.40;;;;;;;31.80;34.93;100318.34;5051071;28;20052;-79
2021/06/23 12:33:40;;;;;;;7.07;2.47;;;;;;;31.59;35.68;100318.59;5050141;28;20056;-79
2021/06/23 12:36:46;;;;;;;9.32;2.83;;;;;;;31.63;34.81;100316.94;5033204;28;20404;-81
2021/06/23 12:39:50;;;;;;;7.97;2.05;;;;;;;31.63;35.50;100325.28;5032648;28;20123;-82
2021/06/23 12:42:54;;;;;;;11.95;2.45;;;;;;;31.70;36.57;100311.97;5032670;28;20396;-79
2021/06/23 12:45:59;;;;;;;9.52;2.55;;;;;;;31.96;35.55;100313.66;5027901;28;20056;-79
2021/06/23 12:49:03;;;;;;;10.90;2.60;;;;;;;32.03;34.71;100317.03;5039018;28;20060;-78
2021/06/23 12:52:08;;;;;;;11.25;2.95;;;;;;;32.02;35.35;100326.50;5030670;28;20052;-78
2021/06/23 12:55:13;;;;;;;17.20;2.80;;;;;;;32.06;34.68;100324.81;5030665;28;20044;-80
2021/06/23 12:58:17;;;;;;;14.68;3.20;;;;;;;32.05;34.21;100315.66;5030655;28;20064;-79
2021/06/23 13:01:21;;;;;;;10.20;2.22;;;;;;;32.14;34.68;100304.84;5048366;28;20060;-79
2021/06/23 13:04:26;;;;;;;8.25;2.50;;;;;;;32.35;34.39;100312.03;5052045;28;20052;-80
2021/06/23 13:07:31;;;;;;;5.80;2.25;;;;;;;32.38;34.02;100302.31;5051940;28;20055;-81
2021/06/23 13:10:35;;;;;;;6.05;2.47;;;;;;;32.21;33.83;100305.38;5052718;28;20044;-80
2021/06/23 13:13:40;;;;;;;11.70;3.00;;;;;;;32.13;33.93;100308.72;5053519;28;20064;-80
2021/06/23 13:16:45;;;;;;;9.73;2.97;;;;;;;32.17;33.92;100323.75;5052478;28;20056;-80
2021/06/23 13:19:49;;;;;;;8.45;2.38;;;;;;;32.17;34.13;100328.44;5052302;28;20044;-78
2021/06/23 13:22:55;;;;;;;9.30;2.28;;;;;;;32.30;33.89;100317.59;5051426;28;20060;-80
2021/06/23 13:25:59;;;;;;;6.35;2.38;;;;;;;32.57;33.24;100303.44;5052447;28;20411;-82
2021/06/23 13:29:04;;;;;;;6.65;2.78;;;;;;;32.79;33.05;100301.16;5056055;28;20052;-79
2021/06/23 13:32:10;;;;;;;9.25;2.30;;;;;;;33.01;33.03;100301.66;5053170;28;20503;-79
2021/06/23 13:35:16;;;;;;;7.75;2.70;;;;;;;33.16;33.54;100304.41;5055763;28;20048;-78
2021/06/23 13:38:23;;;;;;;13.50;2.50;;;;;;;33.27;33.48;100300.50;5055908;28;20068;-79
2021/06/23 13:41:29;;;;;;;8.55;2.35;;;;;;;32.94;32.09;100297.50;5055793;28;20048;-80
2021/06/23 13:44:33;;;;;;;9.52;2.35;;;;;;;32.84;32.94;100305.91;5046441;28;20060;-80
2021/06/23 13:47:38;;;;;;;10.77;2.97;;;;;;;32.71;32.73;100298.97;5047603;28;20052;-80
2021/06/23 13:50:43;;;;;;;11.05;2.58;;;;;;;32.69;32.75;100301.19;5036044;28;20072;-80
2021/06/23 13:53:47;;;;;;;10.52;2.42;;;;;;;32.82;32.55;100294.22;5035167;28;20060;-79
2021/06/23 13:56:52;;;;;;;6.72;2.10;;;;;;;33.07;33.26;100303.34;5035689;28;20048;-79
2021/06/23 13:59:56;;;;;;;12.05;2.63;;;;;;;33.11;32.47;100300.84;5035597;28;20103;-80
2021/06/23 14:03:01;;;;;;;13.23;2.65;;;;;;;33.11;33.11;100306.41;5042583;28;20060;-79
2021/06/23 14:06:05;;;;;;;11.85;2.60;;;;;;;33.06;32.98;100306.44;5054774;28;20068;-78
2021/06/23 14:09:09;;;;;;;7.57;2.10;;;;;;;33.17;32.82;100325.56;5055437;28;20384;-79
2021/06/23 14:12:14;;;;;;;9.65;2.38;;;;;;;33.11;32.17;100346.16;5054313;28;20044;-78
2021/06/23 14:15:18;;;;;;;12.50;2.67;;;;;;;32.94;32.23;100333.66;5055599;28;20060;-78
2021/06/23 14:18:23;;;;;;;9.00;2.35;;;;;;;33.01;32.96;100340.59;5055017;28;20044;-77
2021/06/23 14:21:28;;;;;;;7.28;2.00;;;;;;;33.01;32.44;100353.69;5042611;28;20063;-79
2021/06/23 14:24:34;;;;;;;6.97;2.28;;;;;;;33.27;33.29;100338.63;5054124;28;20064;-79
2021/06/23 14:27:39;;;;;;;12.55;2.65;;;;;;;33.38;32.03;100340.25;5042374;28;20059;-77
2021/06/23 14:30:44;;;;;;;10.45;1.95;;;;;;;33.56;32.36;100331.28;5054835;28;20049;-80
2021/06/23 14:33:48;;;;;;;7.00;2.20;;;;;;;33.60;32.12;100325.97;5054764;28;20059;-81
2021/06/23 14:36:53;;;;;;;6.68;2.10;;;;;;;33.44;31.06;100333.53;5053816;28;20056;-79
2021/06/23 14:39:57;;;;;;;6.65;2.13;;;;;;;33.48;32.53;100342.97;5053809;28;20108;-77
2021/06/23 14:43:02;;;;;;;10.05;2.38;;;;;;;33.59;31.28;100357.72;5054069;28;20048;-80
2021/06/23 14:46:07;;;;;;;4.80;2.20;;;;;;;33.77;31.62;100359.84;5055115;28;20056;-79
2021/06/23 14:49:12;;;;;;;8.55;2.10;;;;;;;33.45;29.55;100356.63;5054764;28;20060;-80
2021/06/23 14:52:17;;;;;;;7.13;2.15;;;;;;;33.30;31.04;100363.09;5053105;28;20052;-79